Time;durP1;ratioP1;P1;durP2;ratioP2;P2;SDS_P1;SDS_P2;PMS_P1;PMS_P2;Temp;Humidity;BMP_temperature;BMP_pressure;BME280_temperature;BME280_humidity;BME280_pressure;Samples;Min_cycle;Max_cycle;Signal;HPM_P1;HPM_P2
2021/08/31 00:00:20;;;;;;;6.53;4.60;;;;;;;22.69;73.01;100652.44;5030003;27;103034;-48
2021/08/31 00:02:47;;;;;;;4.60;4.10;;;;;;;22.69;73.00;100658.00;5032743;28;102350;-49
2021/08/31 00:05:15;;;;;;;7.53;4.68;;;;;;;22.69;72.92;100652.44;5030755;28;102033;-52
2021/08/31 00:07:44;;;;;;;4.72;4.32;;;;;;;22.69;72.94;100662.75;5034054;27;103015;-49
2021/08/31 00:10:12;;;;;;;5.87;5.10;;;;;;;22.68;72.85;100661.91;5029133;27;102923;-48
2021/08/31 00:12:42;;;;;;;4.43;4.13;;;;;;;22.68;73.00;100670.22;5027486;27;102711;-48
2021/08/31 00:15:11;;;;;;;5.13;4.63;;;;;;;22.69;73.16;100677.41;5028738;28;102109;-49
2021/08/31 00:17:40;;;;;;;5.30;4.80;;;;;;;22.67;73.05;100671.41;5021317;27;102571;-48
2021/08/31 00:20:10;;;;;;;4.68;4.28;;;;;;;22.68;72.90;100684.09;5030655;27;102962;-48
2021/08/31 00:22:38;;;;;;;4.72;4.22;;;;;;;22.68;73.01;100683.31;5030161;28;102708;-49
2021/08/31 00:25:06;;;;;;;5.00;4.60;;;;;;;22.68;72.93;100689.66;5030806;27;101929;-49
2021/08/31 00:27:34;;;;;;;5.32;4.82;;;;;;;22.67;72.92;100693.59;5031091;28;102218;-49
2021/08/31 00:30:03;;;;;;;5.03;4.53;;;;;;;22.67;72.93;100688.06;5027195;27;103697;-48
2021/08/31 00:32:31;;;;;;;4.63;3.90;;;;;;;22.67;72.92;100693.59;5024785;27;102158;-49
2021/08/31 00:34:58;;;;;;;4.43;3.87;;;;;;;22.68;73.00;100694.41;5029619;27;102370;-49
2021/08/31 00:37:25;;;;;;;4.60;4.20;;;;;;;22.67;72.96;100693.59;5029293;28;102603;-49
2021/08/31 00:39:52;;;;;;;4.72;4.32;;;;;;;22.68;73.04;100689.66;5031713;28;102938;-48
2021/08/31 00:42:19;;;;;;;4.43;4.03;;;;;;;22.67;72.89;100699.16;5029616;27;102403;-48
2021/08/31 00:44:47;;;;;;;4.70;4.30;;;;;;;22.67;73.03;100699.16;5027963;27;102408;-49
2021/08/31 00:47:16;;;;;;;5.05;4.43;;;;;;;22.67;72.86;100699.16;5027568;27;102271;-50
2021/08/31 00:49:43;;;;;;;4.53;4.13;;;;;;;22.67;72.85;100698.34;5030267;28;103552;-48
2021/08/31 00:52:11;;;;;;;4.45;4.05;;;;;;;22.67;73.16;100698.34;5028505;27;102240;-48
2021/08/31 00:54:39;;;;;;;4.57;4.18;;;;;;;22.66;72.97;100697.53;5031432;28;102229;-49
2021/08/31 00:57:06;;;;;;;5.63;4.18;;;;;;;22.67;72.98;100701.91;5028949;28;102267;-51
2021/08/31 00:59:33;;;;;;;4.68;4.28;;;;;;;22.67;73.09;100698.34;5025366;27;103145;-49
2021/08/31 01:02:01;;;;;;;4.82;4.30;;;;;;;22.67;72.99;100701.91;5024307;27;102018;-48
2021/08/31 01:04:31;;;;;;;6.57;4.37;;;;;;;22.66;72.92;100700.31;5026058;27;102550;-49
2021/08/31 01:06:59;;;;;;;4.25;3.85;;;;;;;22.66;73.00;100697.53;5028349;27;102248;-49
2021/08/31 01:09:27;;;;;;;4.32;3.63;;;;;;;22.66;73.03;100714.19;5028480;28;102937;-51
2021/08/31 01:11:57;;;;;;;4.43;4.03;;;;;;;22.67;73.03;100703.88;5028293;28;102666;-48
2021/08/31 01:14:25;;;;;;;5.13;4.43;;;;;;;22.66;72.85;100703.09;5029531;27;102301;-48
2021/08/31 01:16:53;;;;;;;5.03;4.20;;;;;;;22.66;73.08;100703.09;5030514;27;102634;-49
2021/08/31 01:19:25;;;;;;;8.77;4.00;;;;;;;22.66;73.00;100708.63;5027861;28;102781;-49
2021/08/31 01:21:54;;;;;;;5.75;4.10;;;;;;;22.65;73.00;100709.81;5023718;27;102015;-49
2021/08/31 01:24:20;;;;;;;;;;;;;;;22.67;72.91;100709.44;5020028;27;102721;-48
2021/08/31 01:26:50;;;;;;;3.83;3.53;;;;;;;22.65;73.04;100707.03;5027841;27;102729;-49
2021/08/31 01:29:17;;;;;;;3.78;3.47;;;;;;;22.65;73.06;100709.81;5028635;27;102632;-48
2021/08/31 01:31:44;;;;;;;3.80;3.50;;;;;;;22.65;73.00;100712.56;5028164;27;102541;-49
2021/08/31 01:34:11;;;;;;;4.15;3.75;;;;;;;22.66;73.15;100708.63;5023373;27;102605;-48
2021/08/31 01:36:38;;;;;;;4.97;4.30;;;;;;;22.65;72.86;100712.56;5025805;27;102769;-49
2021/08/31 01:39:06;;;;;;;4.43;4.03;;;;;;;22.66;72.76;100713.38;5028589;28;103544;-48
2021/08/31 01:41:33;;;;;;;4.22;3.83;;;;;;;22.66;73.17;100725.28;5028206;28;102472;-48
2021/08/31 01:44:01;;;;;;;4.18;3.78;;;;;;;22.66;72.92;100721.69;5024068;27;102006;-49
2021/08/31 01:46:30;;;;;;;4.10;3.70;;;;;;;22.65;72.86;100723.66;5027655;27;102605;-49
2021/08/31 01:48:58;;;;;;;3.97;3.57;;;;;;;22.64;72.91;100721.22;5028374;28;102933;-49
2021/08/31 01:51:25;;;;;;;4.53;3.85;;;;;;;22.63;73.16;100720.44;5029699;28;102484;-49
2021/08/31 01:53:52;;;;;;;4.70;3.92;;;;;;;22.65;72.96;100734.78;5028215;28;102532;-48
2021/08/31 01:56:19;;;;;;;4.18;3.85;;;;;;;22.64;72.78;100722.03;5028413;27;102704;-48
2021/08/31 01:58:48;;;;;;;4.37;3.97;;;;;;;22.64;72.97;100722.03;5027638;28;103143;-49
2021/08/31 02:01:17;;;;;;;4.35;3.95;;;;;;;22.64;73.03;100719.25;5021119;27;103527;-48
2021/08/31 02:03:43;;;;;;;;;;;;;;;22.64;72.99;100715.69;5021056;28;102385;-48
2021/08/31 02:06:12;;;;;;;4.40;4.00;;;;;;;22.63;72.84;100725.97;5028386;27;102504;-49
2021/08/31 02:08:39;;;;;;;4.32;3.92;;;;;;;22.64;72.87;100733.13;5022899;28;103087;-48
2021/08/31 02:11:06;;;;;;;5.10;4.60;;;;;;;22.64;72.90;100733.13;5028984;28;101970;-48
2021/08/31 02:13:34;;;;;;;6.00;4.50;;;;;;;22.63;73.05;100731.53;5024718;27;102123;-48
2021/08/31 02:16:01;;;;;;;5.05;4.07;;;;;;;22.64;72.96;100727.59;5023639;28;102429;-49
2021/08/31 02:18:30;;;;;;;6.13;4.07;;;;;;;22.63;72.92;100725.97;5025127;27;103445;-49
2021/08/31 02:20:57;;;;;;;4.72;4.25;;;;;;;22.63;72.91;100725.97;5028435;27;102324;-48
2021/08/31 02:23:24;;;;;;;4.63;4.10;;;;;;;22.63;73.12;100720.44;5025627;28;102449;-50
2021/08/31 02:25:51;;;;;;;4.55;4.15;;;;;;;22.63;72.88;100720.44;5029164;27;102756;-48
2021/08/31 02:28:18;;;;;;;4.30;3.83;;;;;;;22.63;72.84;100731.53;5016156;27;102792;-49
2021/08/31 02:30:45;;;;;;;7.43;4.40;;;;;;;22.63;72.84;100725.97;5022605;28;103131;-49
2021/08/31 02:33:13;;;;;;;5.05;4.50;;;;;;;22.63;72.95;100720.44;5026974;27;103238;-49
2021/08/31 02:35:41;;;;;;;5.10;4.28;;;;;;;22.63;72.96;100716.84;5029795;27;102361;-48
2021/08/31 02:38:08;;;;;;;;;;;;;;;22.63;73.04;100731.53;5030685;27;103133;-49
2021/08/31 02:40:35;;;;;;;4.65;4.15;;;;;;;22.62;73.23;100729.91;5031139;27;102320;-48
2021/08/31 02:43:03;;;;;;;5.18;4.20;;;;;;;22.62;72.90;100729.91;5032271;27;102607;-49
2021/08/31 02:45:30;;;;;;;4.50;4.10;;;;;;;22.62;72.96;100732.69;5013683;28;102447;-48
2021/08/31 02:47:57;;;;;;;4.72;4.13;;;;;;;22.62;72.99;100741.00;5028597;27;103359;-49
2021/08/31 02:50:25;;;;;;;5.10;4.05;;;;;;;22.62;72.99;100732.69;5027143;27;102757;-48
2021/08/31 02:52:54;;;;;;;5.53;4.68;;;;;;;22.61;72.92;100736.63;5020134;27;102223;-48
2021/08/31 02:55:21;;;;;;;4.90;4.40;;;;;;;22.62;72.96;100740.22;5030806;27;102109;-49
2021/08/31 02:57:48;;;;;;;11.52;5.95;;;;;;;22.63;72.89;100739.84;5029577;28;102884;-50
2021/08/31 03:00:19;;;;;;;4.57;4.10;;;;;;;22.62;72.83;100741.00;5022537;27;102338;-48
2021/08/31 03:02:47;;;;;;;5.05;4.32;;;;;;;22.62;72.83;100740.22;5017809;28;102425;-48
2021/08/31 03:05:14;;;;;;;5.35;4.40;;;;;;;22.62;72.80;100741.00;5029822;27;106924;-50
2021/08/31 03:07:41;;;;;;;4.32;3.92;;;;;;;22.61;73.11;100744.97;5024466;27;102984;-48
2021/08/31 03:10:10;;;;;;;5.18;4.15;;;;;;;22.62;72.73;100754.88;5022344;27;102519;-48
2021/08/31 03:12:37;;;;;;;6.55;4.30;;;;;;;22.61;72.83;100760.75;5011374;28;102522;-49
2021/08/31 03:15:06;;;;;;;;;;;;;;;22.61;72.84;100756.06;5027275;27;102734;-49
2021/08/31 03:17:34;;;;;;;5.32;4.55;;;;;;;22.61;72.94;100747.72;5027248;27;103140;-48
2021/08/31 03:20:01;;;;;;;4.80;3.90;;;;;;;22.61;72.89;100744.13;5030977;27;102380;-48
2021/08/31 03:22:28;;;;;;;5.20;4.15;;;;;;;22.60;72.95;100753.63;5026486;27;102198;-48
2021/08/31 03:24:56;;;;;;;5.22;4.25;;;;;;;22.61;72.82;100758.81;5030718;28;102932;-48
2021/08/31 03:27:26;;;;;;;5.13;4.43;;;;;;;22.60;72.85;100764.72;5017465;27;103098;-49
2021/08/31 03:29:56;;;;;;;4.88;4.07;;;;;;;22.61;72.54;100767.16;5024158;27;103011;-49
2021/08/31 03:32:23;;;;;;;8.68;4.60;;;;;;;22.61;72.83;100767.16;5027061;27;102527;-49
2021/08/31 03:34:50;;;;;;;6.72;4.10;;;;;;;22.60;72.92;100759.97;5030719;28;103255;-48
2021/08/31 03:37:17;;;;;;;4.57;3.95;;;;;;;22.61;72.88;100771.88;5025179;27;103523;-48
2021/08/31 03:39:45;;;;;;;7.38;4.53;;;;;;;22.60;72.92;100761.94;5029404;27;102444;-49
2021/08/31 03:42:12;;;;;;;4.85;4.03;;;;;;;22.59;72.65;100777.78;5025424;27;102473;-49
2021/08/31 03:44:40;;;;;;;6.57;4.35;;;;;;;22.60;72.81;100776.59;5029681;28;102558;-49
2021/08/31 03:47:07;;;;;;;5.35;4.10;;;;;;;22.59;72.85;100786.09;5026260;27;102916;-49
2021/08/31 03:49:34;;;;;;;5.50;3.85;;;;;;;22.59;72.92;100786.09;5023270;27;102447;-49
2021/08/31 03:52:01;;;;;;;5.88;4.32;;;;;;;22.60;72.86;100790.47;5025879;27;102541;-50
2021/08/31 03:54:29;;;;;;;4.75;4.30;;;;;;;22.59;72.95;100775.00;5026449;27;102451;-48
2021/08/31 03:56:55;;;;;;;5.35;4.13;;;;;;;22.59;72.97;100782.53;5024608;27;103270;-48
2021/08/31 03:59:23;;;;;;;8.90;3.87;;;;;;;22.59;72.98;100779.75;5025980;27;104693;-49
2021/08/31 04:01:52;;;;;;;4.55;3.90;;;;;;;22.59;72.54;100783.31;5022944;27;102531;-49
2021/08/31 04:04:19;;;;;;;4.35;3.85;;;;;;;22.58;73.00;100787.25;5027275;27;103112;-49
2021/08/31 04:06:46;;;;;;;8.38;5.88;;;;;;;22.58;72.89;100784.50;5016368;28;102950;-55
2021/08/31 04:09:13;;;;;;;12.63;6.63;;;;;;;22.56;72.14;100786.78;5011319;28;102626;-55
2021/08/31 04:11:43;;;;;;;7.50;5.75;;;;;;;22.52;71.98;100777.56;5028280;27;102195;-55
2021/08/31 04:14:10;;;;;;;8.55;6.80;;;;;;;22.49;71.70;100781.84;5035729;27;102935;-54
2021/08/31 04:16:38;;;;;;;11.27;6.05;;;;;;;22.47;71.35;100788.91;5037318;27;103934;-56
2021/08/31 04:19:06;;;;;;;9.40;6.00;;;;;;;22.43;70.88;100779.66;5037581;27;103112;-52
2021/08/31 04:21:33;;;;;;;11.88;7.32;;;;;;;22.41;70.63;100787.53;5032581;27;102416;-53
2021/08/31 04:24:01;;;;;;;15.88;8.75;;;;;;;22.38;70.62;100794.56;5035755;28;102231;-53
2021/08/31 04:26:30;;;;;;;17.20;8.70;;;;;;;22.36;70.67;100804.38;5027044;27;103595;-53
2021/08/31 04:28:57;;;;;;;14.88;10.48;;;;;;;22.33;70.42;100800.38;5022266;28;102314;-52
2021/08/31 04:31:25;;;;;;;18.45;12.13;;;;;;;22.31;70.13;100805.44;5028049;27;102709;-52
2021/08/31 04:33:52;;;;;;;19.45;12.13;;;;;;;22.29;70.13;100810.53;5026344;27;102867;-53
2021/08/31 04:36:20;;;;;;;13.50;9.40;;;;;;;22.27;70.20;100807.31;5032467;27;104967;-52
2021/08/31 04:38:49;;;;;;;12.25;8.85;;;;;;;22.23;69.81;100812.72;5027440;27;103580;-54
2021/08/31 04:41:16;;;;;;;11.82;8.30;;;;;;;22.20;69.93;100805.09;5026212;27;102651;-53
2021/08/31 04:43:43;;;;;;;13.18;8.68;;;;;;;22.20;69.85;100802.34;5024452;27;102258;-53
2021/08/31 04:46:10;;;;;;;10.70;7.13;;;;;;;22.18;69.91;100803.84;5027313;27;103039;-54
2021/08/31 04:48:37;;;;;;;7.43;6.35;;;;;;;22.16;69.77;100812.50;5027582;27;102367;-53
2021/08/31 04:51:04;;;;;;;7.72;5.88;;;;;;;22.14;69.83;100803.72;5006996;27;102638;-53
2021/08/31 04:53:32;;;;;;;8.48;5.80;;;;;;;22.12;69.66;100806.00;5027283;27;102515;-52
2021/08/31 04:55:59;;;;;;;10.50;7.05;;;;;;;22.11;69.50;100798.88;5027691;27;105460;-53
2021/08/31 04:58:26;;;;;;;8.32;6.07;;;;;;;22.12;69.76;100805.22;5023905;27;102727;-53
2021/08/31 05:00:52;;;;;;;7.88;6.20;;;;;;;22.10;69.91;100802.78;5020172;27;102527;-53
2021/08/31 05:03:19;;;;;;;7.03;6.10;;;;;;;22.11;69.82;100804.41;5025981;27;102765;-53
2021/08/31 05:05:46;;;;;;;8.48;6.40;;;;;;;22.12;69.97;100805.22;5025360;27;103936;-53
2021/08/31 05:08:13;;;;;;;7.60;5.82;;;;;;;22.12;69.75;100814.34;5009698;28;102710;-53
2021/08/31 05:10:44;;;;;;;7.82;5.90;;;;;;;22.13;69.95;100810.41;5029436;27;102243;-53
2021/08/31 05:13:11;;;;;;;7.35;5.60;;;;;;;22.13;70.18;100812.38;5028100;27;102186;-53
2021/08/31 05:15:39;;;;;;;7.47;5.90;;;;;;;22.14;70.23;100814.81;5030445;28;103865;-53
2021/08/31 05:18:05;;;;;;;6.68;5.85;;;;;;;22.15;70.26;100816.44;5027188;28;102151;-53
2021/08/31 05:20:32;;;;;;;6.53;5.68;;;;;;;22.17;70.21;100813.31;5023792;27;102386;-53
2021/08/31 05:23:01;;;;;;;9.20;6.15;;;;;;;22.16;70.24;100814.47;5027669;27;102612;-53
2021/08/31 05:25:27;;;;;;;7.63;6.03;;;;;;;22.18;70.32;100815.75;5027209;27;104104;-53
2021/08/31 05:27:56;;;;;;;7.13;5.90;;;;;;;22.19;70.12;100820.13;5027575;27;102966;-53
2021/08/31 05:30:23;;;;;;;9.05;6.57;;;;;;;22.19;70.34;100825.69;5025073;27;102442;-54
2021/08/31 05:32:49;;;;;;;7.93;5.47;;;;;;;22.22;70.42;100815.88;5024227;27;103696;-52
2021/08/31 05:35:16;;;;;;;9.68;6.18;;;;;;;22.22;70.62;100822.22;5026590;27;104004;-52
2021/08/31 05:37:43;;;;;;;7.15;5.50;;;;;;;22.24;70.49;100824.63;5019023;27;102340;-52
2021/08/31 05:40:10;;;;;;;6.45;5.00;;;;;;;22.23;70.32;100821.06;5015775;27;102561;-52
2021/08/31 05:42:37;;;;;;;7.17;5.40;;;;;;;22.23;70.39;100818.28;5027144;27;102291;-52
2021/08/31 05:45:06;;;;;;;7.82;5.88;;;;;;;22.24;70.06;100819.09;5025963;28;104165;-52
2021/08/31 05:47:33;;;;;;;5.53;4.93;;;;;;;22.26;70.07;100823.13;5025486;27;102624;-52
2021/08/31 05:50:00;;;;;;;6.10;5.15;;;;;;;22.27;70.23;100821.16;5030186;27;102905;-52
2021/08/31 05:52:27;;;;;;;7.18;5.18;;;;;;;22.28;70.22;100817.22;5026326;28;102556;-52
2021/08/31 05:54:54;;;;;;;7.45;5.13;;;;;;;22.28;70.05;100820.81;5014460;28;103935;-52
2021/08/31 05:57:20;;;;;;;6.70;5.20;;;;;;;22.30;70.11;100828.78;5024863;28;102438;-52
2021/08/31 05:59:47;;;;;;;6.25;5.30;;;;;;;22.31;70.15;100827.63;5025561;27;102402;-52
2021/08/31 06:02:17;;;;;;;6.78;4.97;;;;;;;22.33;70.01;100838.38;5020660;28;103845;-52
2021/08/31 06:04:44;;;;;;;8.07;5.32;;;;;;;22.34;70.07;100835.25;5027386;27;102954;-52
2021/08/31 06:07:11;;;;;;;6.95;5.70;;;;;;;22.35;69.90;100830.50;5027172;28;102194;-53
2021/08/31 06:09:40;;;;;;;7.35;5.55;;;;;;;22.37;69.76;100833.75;5026349;27;102600;-53
2021/08/31 06:12:09;;;;;;;7.50;5.30;;;;;;;22.38;69.71;100840.91;5025173;27;102279;-52
2021/08/31 06:14:35;;;;;;;14.77;6.45;;;;;;;22.39;69.61;100831.44;5027558;28;103925;-53
2021/08/31 06:17:03;;;;;;;11.70;6.05;;;;;;;22.40;69.71;100838.59;5027361;27;102267;-53
2021/08/31 06:19:32;;;;;;;10.23;6.27;;;;;;;22.42;69.49;100841.81;5025397;28;102909;-52
2021/08/31 06:21:59;;;;;;;7.97;6.07;;;;;;;22.44;69.61;100839.53;5025419;27;102723;-52
2021/08/31 06:24:26;;;;;;;6.85;4.93;;;;;;;22.44;69.54;100845.88;5019876;27;104094;-52
2021/08/31 06:26:52;;;;;;;9.57;5.50;;;;;;;22.47;69.67;100841.59;5020399;27;102234;-52
2021/08/31 06:29:19;;;;;;;8.45;5.47;;;;;;;22.48;69.53;100852.34;5026852;27;102606;-53
2021/08/31 06:31:47;;;;;;;10.43;5.55;;;;;;;22.49;69.59;100848.41;5027098;27;102307;-53
2021/08/31 06:34:13;;;;;;;5.95;5.13;;;;;;;22.51;69.22;100850.84;5027854;27;103901;-52
2021/08/31 06:36:42;;;;;;;7.65;5.07;;;;;;;22.54;69.46;100850.16;5026511;27;102600;-52
2021/08/31 06:39:08;;;;;;;8.32;5.25;;;;;;;22.54;69.45;100850.16;5026238;27;102247;-52
2021/08/31 06:41:37;;;;;;;6.93;4.93;;;;;;;22.57;69.44;100854.16;5026844;28;102630;-52
2021/08/31 06:44:04;;;;;;;7.57;5.10;;;;;;;22.56;69.40;100845.03;5017460;27;106328;-52
2021/08/31 06:46:30;;;;;;;6.13;4.43;;;;;;;22.60;69.62;100853.47;5023377;27;103091;-53
2021/08/31 06:48:57;;;;;;;7.07;4.88;;;;;;;22.61;69.63;100855.91;5018004;27;102175;-53
2021/08/31 06:51:23;;;;;;;6.22;4.38;;;;;;;22.62;69.36;100851.97;5025871;27;102327;-52
2021/08/31 06:53:51;;;;;;;5.47;4.20;;;;;;;22.65;69.35;100856.81;5023933;28;104113;-53
2021/08/31 06:56:20;;;;;;;7.03;4.47;;;;;;;22.67;69.43;100857.25;5023816;27;102330;-53
2021/08/31 06:58:47;;;;;;;8.82;4.85;;;;;;;22.70;69.37;100864.88;5024641;27;102636;-52
2021/08/31 07:01:15;;;;;;;6.22;4.70;;;;;;;22.71;69.29;100860.16;5020130;27;102855;-52
2021/08/31 07:03:42;;;;;;;6.28;4.28;;;;;;;22.73;69.30;100858.66;5021187;28;103910;-52
2021/08/31 07:06:08;;;;;;;6.95;4.50;;;;;;;22.75;69.01;100855.50;5021301;27;102254;-53
2021/08/31 07:08:35;;;;;;;15.77;4.97;;;;;;;22.76;68.73;100860.72;5026475;28;102174;-52
2021/08/31 07:11:04;;;;;;;5.85;4.13;;;;;;;22.79;68.97;100861.97;5025457;28;102491;-52
2021/08/31 07:13:30;;;;;;;6.35;4.68;;;;;;;22.79;68.68;100857.25;5027568;28;104080;-52
2021/08/31 07:15:57;;;;;;;5.78;4.50;;;;;;;22.83;68.71;100853.75;5026213;27;102070;-52
2021/08/31 07:18:24;;;;;;;6.68;4.43;;;;;;;22.84;68.70;100863.72;5024908;27;103013;-52
2021/08/31 07:20:52;;;;;;;7.20;4.85;;;;;;;22.85;68.58;100862.53;5028027;28;103556;-53
2021/08/31 07:23:18;;;;;;;5.13;4.18;;;;;;;22.85;68.32;100860.56;5027702;27;103973;-52
2021/08/31 07:25:48;;;;;;;7.90;4.38;;;;;;;22.87;68.18;100863.00;5029563;27;102002;-52
2021/08/31 07:28:16;;;;;;;7.75;5.00;;;;;;;22.88;67.62;100865.44;5025444;27;102218;-52
2021/08/31 07:30:42;;;;;;;4.00;3.60;;;;;;;22.90;67.41;100865.91;5022466;28;103793;-52
2021/08/31 07:33:10;;;;;;;4.97;4.40;;;;;;;22.91;67.45;100864.72;5029329;27;103900;-52
2021/08/31 07:35:38;;;;;;;5.75;5.15;;;;;;;22.94;67.01;100863.25;5028357;27;102433;-52
2021/08/31 07:38:05;;;;;;;15.68;4.50;;;;;;;22.95;67.46;100864.88;5022969;27;102475;-52
2021/08/31 07:40:33;;;;;;;7.20;4.27;;;;;;;22.97;67.15;100865.31;5028566;27;102604;-52
2021/08/31 07:42:59;;;;;;;4.90;4.40;;;;;;;22.98;66.88;100870.53;5029265;28;103923;-52
2021/08/31 07:45:27;;;;;;;7.28;4.50;;;;;;;22.99;66.71;100877.69;5030820;28;102089;-52
2021/08/31 07:47:54;;;;;;;7.20;5.07;;;;;;;23.01;66.43;100864.28;5029036;27;102724;-52
2021/08/31 07:50:21;;;;;;;10.52;4.90;;;;;;;23.02;66.36;100859.53;5028212;27;103014;-52
2021/08/31 07:52:48;;;;;;;9.80;4.50;;;;;;;23.05;66.42;100853.28;5026343;28;103894;-52
2021/08/31 07:55:16;;;;;;;5.40;4.63;;;;;;;23.06;66.49;100860.44;5027266;27;102605;-52
2021/08/31 07:57:43;;;;;;;6.27;4.30;;;;;;;23.08;66.48;100857.28;5025131;27;102449;-52
2021/08/31 08:00:13;;;;;;;6.35;4.25;;;;;;;23.10;65.90;100860.53;5026220;27;102822;-52
2021/08/31 08:02:41;;;;;;;7.95;4.75;;;;;;;23.11;65.97;100860.16;5026900;28;104018;-53
2021/08/31 08:05:10;;;;;;;7.03;4.30;;;;;;;23.13;65.68;100855.09;5031252;28;102732;-53
2021/08/31 08:07:37;;;;;;;8.70;4.28;;;;;;;23.14;65.53;100859.47;5025864;28;102334;-52
2021/08/31 08:10:05;;;;;;;4.60;3.95;;;;;;;23.16;65.94;100854.38;5023595;28;102523;-52
2021/08/31 08:12:32;;;;;;;5.97;4.13;;;;;;;23.17;65.52;100856.00;5025856;28;103600;-52
2021/08/31 08:14:59;;;;;;;9.13;4.63;;;;;;;23.17;65.44;100850.44;5025691;27;102293;-54
2021/08/31 08:17:27;;;;;;;6.57;4.53;;;;;;;23.19;65.99;100852.88;5030014;27;102731;-53
2021/08/31 08:19:55;;;;;;;7.75;4.30;;;;;;;23.20;66.11;100848.94;5011496;28;102632;-54
2021/08/31 08:22:22;;;;;;;6.30;4.00;;;;;;;23.22;66.30;100846.59;5027155;28;103763;-53
2021/08/31 08:24:48;;;;;;;4.97;4.00;;;;;;;23.23;66.28;100851.81;5027473;27;102440;-53
2021/08/31 08:27:15;;;;;;;4.15;3.80;;;;;;;23.24;66.38;100845.09;5029632;27;102203;-53
2021/08/31 08:29:42;;;;;;;5.72;4.78;;;;;;;23.24;66.59;100845.09;5026205;27;102576;-53
2021/08/31 08:32:11;;;;;;;5.20;3.70;;;;;;;23.27;66.88;100849.13;5024177;27;103834;-53
2021/08/31 08:34:37;;;;;;;;;;;;;;;23.29;66.48;100857.09;5026105;27;102071;-53
2021/08/31 08:37:07;;;;;;;5.07;3.53;;;;;;;23.30;66.67;100855.91;5019233;27;102694;-53
2021/08/31 08:39:34;;;;;;;6.07;4.13;;;;;;;23.30;66.95;100851.19;5029291;27;102510;-53
2021/08/31 08:42:04;;;;;;;4.18;3.78;;;;;;;23.31;66.79;100843.69;5028809;27;103407;-53
2021/08/31 08:44:32;;;;;;;4.40;3.75;;;;;;;23.32;67.10;100839.72;5022543;28;103228;-53
2021/08/31 08:46:59;;;;;;;4.32;3.92;;;;;;;23.33;67.03;100830.22;5020698;27;102085;-54
2021/08/31 08:49:25;;;;;;;4.20;3.60;;;;;;;23.34;66.97;100831.88;5029489;27;102725;-53
2021/08/31 08:51:54;;;;;;;20.02;4.40;;;;;;;23.34;67.47;100837.41;5027398;28;103996;-53
2021/08/31 08:54:23;;;;;;;5.72;4.38;;;;;;;23.35;67.30;100825.13;5030312;28;102264;-53
2021/08/31 08:56:51;;;;;;;4.68;4.25;;;;;;;23.35;67.41;100823.16;5025568;28;102324;-53
2021/08/31 08:59:18;;;;;;;5.68;4.00;;;;;;;23.36;67.45;100826.75;5025938;27;103081;-53
2021/08/31 09:01:48;;;;;;;4.43;3.78;;;;;;;23.36;67.41;100829.53;5015985;27;104424;-53
2021/08/31 09:04:17;;;;;;;3.90;3.60;;;;;;;23.38;67.52;100829.97;5025262;27;102017;-55
2021/08/31 09:06:43;;;;;;;4.13;3.72;;;;;;;23.38;67.24;100832.75;5027764;28;102652;-56
2021/08/31 09:09:11;;;;;;;4.10;3.70;;;;;;;23.37;67.64;100826.41;5028328;28;102243;-53
2021/08/31 09:11:41;;;;;;;4.63;3.88;;;;;;;23.39;67.48;100826.03;5038908;28;102788;-53
2021/08/31 09:14:20;;;;;;;4.20;3.90;;;;;;;23.40;67.76;100827.63;5040214;27;102048;-53
2021/08/31 09:16:49;;;;;;;4.00;3.67;;;;;;;23.40;67.74;100822.09;5041648;27;101819;-53
2021/08/31 09:19:16;;;;;;;4.20;3.53;;;;;;;23.41;67.73;100826.50;5038006;28;102255;-53
2021/08/31 09:21:47;;;;;;;4.45;4.05;;;;;;;23.41;67.78;100829.28;5025602;27;103917;-53
2021/08/31 09:24:13;;;;;;;4.47;4.07;;;;;;;23.41;67.93;100823.72;5028879;27;102127;-53
2021/08/31 09:26:43;;;;;;;4.60;3.60;;;;;;;23.41;67.88;100826.50;5027099;27;102415;-53
2021/08/31 09:29:18;;;;;;;4.40;4.00;;;;;;;23.41;67.64;100815.38;5025826;27;102718;-53
2021/08/31 09:31:47;;;;;;;4.18;3.78;;;;;;;23.42;67.95;100814.22;5030009;28;103559;-53
2021/08/31 09:34:35;;;;;;;3.53;3.22;;;;;;;23.42;67.88;100817.00;5029469;28;102180;-53
2021/08/31 09:37:25;;;;;;;4.13;3.78;;;;;;;23.41;67.88;100812.63;5026483;27;102533;-53
2021/08/31 09:40:00;;;;;;;4.65;4.22;;;;;;;23.41;67.92;100816.19;5027501;27;102534;-53
2021/08/31 09:42:28;;;;;;;4.28;3.88;;;;;;;23.41;67.97;100809.84;5019915;27;104165;-53
2021/08/31 09:45:01;;;;;;;5.22;4.10;;;;;;;23.41;68.03;100812.63;5028249;27;102168;-53
2021/08/31 09:47:34;;;;;;;5.78;3.58;;;;;;;23.42;68.19;100808.66;5024669;27;102156;-53
2021/08/31 09:50:02;;;;;;;4.57;4.18;;;;;;;23.40;68.22;100814.56;5028983;27;102464;-53
2021/08/31 09:52:29;;;;;;;3.90;3.50;;;;;;;23.40;68.40;100809.00;5027817;27;103923;-53
2021/08/31 09:54:56;;;;;;;4.22;3.80;;;;;;;23.41;68.36;100804.28;5029248;27;103295;-53
2021/08/31 09:57:29;;;;;;;4.55;4.15;;;;;;;23.41;68.50;100805.09;5023515;28;102731;-53
2021/08/31 09:59:57;;;;;;;4.25;3.85;;;;;;;23.40;68.35;100799.88;5011685;27;102142;-53
2021/08/31 10:02:25;;;;;;;4.35;3.65;;;;;;;23.40;68.46;100810.97;5026392;27;104086;-53
2021/08/31 10:04:54;;;;;;;4.05;3.60;;;;;;;23.39;68.33;100796.28;5022278;28;103136;-53
2021/08/31 10:07:22;;;;;;;5.63;3.95;;;;;;;23.39;68.49;100801.03;5027529;27;102646;-53
2021/08/31 10:09:49;;;;;;;4.53;3.70;;;;;;;23.40;68.58;100791.53;5026415;27;102785;-53
2021/08/31 10:12:19;;;;;;;4.40;4.00;;;;;;;23.39;68.42;100787.97;5025274;27;102779;-53
2021/08/31 10:14:51;;;;;;;4.30;3.90;;;;;;;23.39;68.50;100784.38;5029312;28;102474;-54
2021/08/31 10:17:19;;;;;;;4.25;3.85;;;;;;;23.39;68.62;100784.38;5024690;28;102372;-53
2021/08/31 10:19:46;;;;;;;4.05;3.65;;;;;;;23.38;68.62;100778.03;5032186;28;102721;-53
2021/08/31 10:22:16;;;;;;;3.72;3.42;;;;;;;23.38;68.55;100778.03;5026058;27;104033;-53
2021/08/31 10:24:47;;;;;;;3.58;3.22;;;;;;;23.38;68.57;100782.78;5031960;27;102286;-53
2021/08/31 10:27:32;;;;;;;4.93;3.92;;;;;;;23.37;68.50;100781.13;5024439;28;103660;-53
2021/08/31 10:30:41;;;;;;;4.28;3.88;;;;;;;23.38;68.63;100777.22;5029432;27;102654;-53
2021/08/31 10:33:32;;;;;;;4.10;3.70;;;;;;;23.38;68.53;100785.56;5018492;27;103859;-53
2021/08/31 10:36:01;;;;;;;4.18;3.80;;;;;;;23.36;68.74;100773.97;5026084;27;102001;-53
2021/08/31 10:38:53;;;;;;;3.85;3.45;;;;;;;23.36;68.67;100776.75;5029658;28;102761;-53
2021/08/31 10:41:49;;;;;;;4.13;3.83;;;;;;;23.35;68.51;100770.41;5025390;27;102363;-53
2021/08/31 10:44:41;;;;;;;4.13;3.72;;;;;;;23.34;68.67;100777.13;5027128;28;103199;-53
2021/08/31 10:47:18;;;;;;;4.15;3.70;;;;;;;23.35;68.93;100772.38;5028520;28;102904;-53
2021/08/31 10:50:18;;;;;;;4.38;3.80;;;;;;;23.35;68.70;100775.16;5029684;28;102207;-53
2021/08/31 10:52:49;;;;;;;3.92;3.53;;;;;;;23.34;68.83;100776.31;5025172;28;102257;-53
2021/08/31 10:55:44;;;;;;;3.97;3.60;;;;;;;23.34;68.64;100776.31;5027406;27;104191;-53
2021/08/31 10:58:12;;;;;;;3.85;3.55;;;;;;;23.33;69.00;100769.13;5031268;28;102600;-53
2021/08/31 11:00:48;;;;;;;;;;;;;;;23.33;68.60;100777.47;5022865;27;102843;-53
2021/08/31 11:03:37;;;;;;;3.33;3.03;;;;;;;23.32;68.88;100779.44;5021471;27;102216;-53
2021/08/31 11:06:26;;;;;;;;;;;;;;;23.32;68.76;100773.09;5022791;27;103621;-53
2021/08/31 11:09:20;;;;;;;3.72;3.40;;;;;;;23.31;69.08;100772.28;5024540;28;102158;-53
2021/08/31 11:12:12;;;;;;;3.17;2.88;;;;;;;23.31;68.75;100765.91;5027071;27;103482;-53
2021/08/31 11:14:55;;;;;;;6.85;3.17;;;;;;;23.30;69.19;100761.50;5023119;27;103689;-53
2021/08/31 11:17:42;;;;;;;3.30;3.00;;;;;;;23.30;68.95;100758.72;5022544;28;102463;-53
2021/08/31 11:20:14;;;;;;;3.00;2.80;;;;;;;23.30;69.16;100767.06;5017729;27;102216;-53
2021/08/31 11:22:42;;;;;;;3.28;2.97;;;;;;;23.30;69.14;100769.84;5025249;27;102339;-53
2021/08/31 11:25:09;;;;;;;3.53;3.00;;;;;;;23.29;69.23;100773.78;5027719;27;102559;-53